Terminal Aerodrome Forecast
Issued by NWS

Home | Current Version | Previous Version | Text Only | Print | Product List | Glossary On
Versions: 1 2 3 4 5 6 7 8 9 10 11 12 13 14 15 16
834
FTUS43 KSGF 081135
TAFBBG
TAF
KBBG 081135Z 0812/0912 30014G25KT P6SM BKN050
     FM081400 32017G27KT P6SM OVC050
      TEMPO 0814/0818 6SM -SHSN OVC030
     FM090100 32012KT P6SM BKN050
     FM090800 30008KT P6SM SCT050=

USA.gov is the U.S. government's official web portal to all federal, state and local government web resources and services.